sensor_id;sensor_type;location;lat;lon;timestamp;pressure;altitude;pressure_sealevel;temperature
76476;BMP280;65308;50.078;14.854;2024-03-02T00:01:06;98176.94;;;12.04
76476;BMP280;65308;50.078;14.854;2024-03-02T00:03:32;98176.16;;;11.98
76476;BMP280;65308;50.078;14.854;2024-03-02T00:05:59;98171.06;;;11.80
76476;BMP280;65308;50.078;14.854;2024-03-02T00:08:26;98175.97;;;11.82
76476;BMP280;65308;50.078;14.854;2024-03-02T00:10:57;98177.31;;;11.51
76476;BMP280;65308;50.078;14.854;2024-03-02T00:13:24;98174.13;;;11.67
76476;BMP280;65308;50.078;14.854;2024-03-02T00:15:53;98178.56;;;11.76
76476;BMP280;65308;50.078;14.854;2024-03-02T00:18:23;98185.22;;;11.80
76476;BMP280;65308;50.078;14.854;2024-03-02T00:20:53;98184.53;;;11.86
76476;BMP280;65308;50.078;14.854;2024-03-02T00:23:21;98187.06;;;11.95
76476;BMP280;65308;50.078;14.854;2024-03-02T00:25:49;98189.84;;;12.00
76476;BMP280;65308;50.078;14.854;2024-03-02T00:28:17;98192.34;;;12.10
76476;BMP280;65308;50.078;14.854;2024-03-02T00:30:56;98184.84;;;12.14
76476;BMP280;65308;50.078;14.854;2024-03-02T00:33:24;98179.88;;;12.07
76476;BMP280;65308;50.078;14.854;2024-03-02T00:35:53;98186.47;;;12.06
76476;BMP280;65308;50.078;14.854;2024-03-02T00:38:19;98190.41;;;12.10
76476;BMP280;65308;50.078;14.854;2024-03-02T00:40:46;98197.25;;;12.11
76476;BMP280;65308;50.078;14.854;2024-03-02T00:46:07;98195.25;;;12.06
76476;BMP280;65308;50.078;14.854;2024-03-02T00:48:34;98203.50;;;12.02
76476;BMP280;65308;50.078;14.854;2024-03-02T00:51:02;98197.06;;;11.94
76476;BMP280;65308;50.078;14.854;2024-03-02T00:53:30;98200.69;;;11.91
76476;BMP280;65308;50.078;14.854;2024-03-02T00:55:57;98196.50;;;11.90
76476;BMP280;65308;50.078;14.854;2024-03-02T00:58:24;98198.00;;;11.91
76476;BMP280;65308;50.078;14.854;2024-03-02T01:00:51;98191.38;;;11.87
76476;BMP280;65308;50.078;14.854;2024-03-02T01:03:19;98193.72;;;11.99
76476;BMP280;65308;50.078;14.854;2024-03-02T01:05:45;98194.44;;;12.00
76476;BMP280;65308;50.078;14.854;2024-03-02T01:08:12;98191.75;;;12.00
76476;BMP280;65308;50.078;14.854;2024-03-02T01:10:38;98201.44;;;11.92
76476;BMP280;65308;50.078;14.854;2024-03-02T01:13:05;98193.09;;;11.90
76476;BMP280;65308;50.078;14.854;2024-03-02T01:15:33;98193.78;;;11.85
76476;BMP280;65308;50.078;14.854;2024-03-02T01:18:00;98192.31;;;11.84
76476;BMP280;65308;50.078;14.854;2024-03-02T01:20:27;98191.50;;;11.98
76476;BMP280;65308;50.078;14.854;2024-03-02T01:22:54;98187.06;;;11.95
76476;BMP280;65308;50.078;14.854;2024-03-02T01:25:21;98188.44;;;11.85
76476;BMP280;65308;50.078;14.854;2024-03-02T01:27:47;98188.97;;;11.89
76476;BMP280;65308;50.078;14.854;2024-03-02T01:30:14;98193.06;;;11.84
76476;BMP280;65308;50.078;14.854;2024-03-02T01:32:41;98194.91;;;11.78
76476;BMP280;65308;50.078;14.854;2024-03-02T01:35:08;98180.50;;;11.75
76476;BMP280;65308;50.078;14.854;2024-03-02T01:37:36;98183.47;;;11.77
76476;BMP280;65308;50.078;14.854;2024-03-02T01:40:03;98189.22;;;11.70
76476;BMP280;65308;50.078;14.854;2024-03-02T01:42:34;98186.59;;;11.76
76476;BMP280;65308;50.078;14.854;2024-03-02T01:45:01;98187.09;;;11.74
76476;BMP280;65308;50.078;14.854;2024-03-02T01:47:28;98182.44;;;11.75
76476;BMP280;65308;50.078;14.854;2024-03-02T01:49:55;98192.75;;;11.62
76476;BMP280;65308;50.078;14.854;2024-03-02T01:52:22;98186.53;;;11.50
76476;BMP280;65308;50.078;14.854;2024-03-02T01:54:50;98184.56;;;11.30
76476;BMP280;65308;50.078;14.854;2024-03-02T01:57:17;98180.06;;;11.21
76476;BMP280;65308;50.078;14.854;2024-03-02T01:59:44;98183.84;;;11.15
76476;BMP280;65308;50.078;14.854;2024-03-02T02:02:12;98182.59;;;11.10
76476;BMP280;65308;50.078;14.854;2024-03-02T02:04:39;98182.16;;;10.97
76476;BMP280;65308;50.078;14.854;2024-03-02T02:07:06;98181.97;;;10.86
76476;BMP280;65308;50.078;14.854;2024-03-02T02:09:33;98180.59;;;10.75
76476;BMP280;65308;50.078;14.854;2024-03-02T02:12:01;98185.94;;;10.75
76476;BMP280;65308;50.078;14.854;2024-03-02T02:14:28;98185.69;;;10.73
76476;BMP280;65308;50.078;14.854;2024-03-02T02:16:55;98175.72;;;10.74
76476;BMP280;65308;50.078;14.854;2024-03-02T02:19:22;98177.22;;;10.75
76476;BMP280;65308;50.078;14.854;2024-03-02T02:21:50;98184.28;;;10.78
76476;BMP280;65308;50.078;14.854;2024-03-02T02:24:16;98176.25;;;10.78
76476;BMP280;65308;50.078;14.854;2024-03-02T02:26:43;98182.53;;;10.90
76476;BMP280;65308;50.078;14.854;2024-03-02T02:29:10;98188.50;;;10.99
76476;BMP280;65308;50.078;14.854;2024-03-02T02:31:37;98194.06;;;11.11
76476;BMP280;65308;50.078;14.854;2024-03-02T02:34:04;98198.25;;;11.17
76476;BMP280;65308;50.078;14.854;2024-03-02T02:36:31;98191.16;;;11.14
76476;BMP280;65308;50.078;14.854;2024-03-02T02:39:00;98194.13;;;11.16
76476;BMP280;65308;50.078;14.854;2024-03-02T02:41:28;98187.47;;;11.12
76476;BMP280;65308;50.078;14.854;2024-03-02T02:43:55;98180.16;;;11.12
76476;BMP280;65308;50.078;14.854;2024-03-02T02:46:22;98185.25;;;11.10
76476;BMP280;65308;50.078;14.854;2024-03-02T02:48:48;98176.69;;;11.06
76476;BMP280;65308;50.078;14.854;2024-03-02T02:51:16;98179.78;;;11.19
76476;BMP280;65308;50.078;14.854;2024-03-02T02:53:43;98168.19;;;11.07
76476;BMP280;65308;50.078;14.854;2024-03-02T02:56:11;98176.53;;;10.95
76476;BMP280;65308;50.078;14.854;2024-03-02T02:58:39;98181.25;;;10.85
76476;BMP280;65308;50.078;14.854;2024-03-02T03:01:06;98175.25;;;10.75
76476;BMP280;65308;50.078;14.854;2024-03-02T03:03:32;98174.97;;;10.73
76476;BMP280;65308;50.078;14.854;2024-03-02T03:05:59;98176.09;;;10.67
76476;BMP280;65308;50.078;14.854;2024-03-02T03:08:26;98175.63;;;10.68
76476;BMP280;65308;50.078;14.854;2024-03-02T03:10:52;98182.03;;;10.91
76476;BMP280;65308;50.078;14.854;2024-03-02T03:13:20;98189.53;;;11.02
76476;BMP280;65308;50.078;14.854;2024-03-02T03:15:48;98183.34;;;10.96
76476;BMP280;65308;50.078;14.854;2024-03-02T03:18:14;98183.47;;;10.87
76476;BMP280;65308;50.078;14.854;2024-03-02T03:20:41;98185.31;;;10.80
76476;BMP280;65308;50.078;14.854;2024-03-02T03:23:07;98189.16;;;10.79
76476;BMP280;65308;50.078;14.854;2024-03-02T03:25:34;98189.28;;;10.70
76476;BMP280;65308;50.078;14.854;2024-03-02T03:28:01;98192.97;;;10.73
76476;BMP280;65308;50.078;14.854;2024-03-02T03:30:29;98191.41;;;10.66
76476;BMP280;65308;50.078;14.854;2024-03-02T03:32:56;98195.56;;;10.67
76476;BMP280;65308;50.078;14.854;2024-03-02T03:35:23;98198.84;;;10.77
76476;BMP280;65308;50.078;14.854;2024-03-02T03:37:49;98193.88;;;10.70
76476;BMP280;65308;50.078;14.854;2024-03-02T03:40:16;98196.75;;;10.66
76476;BMP280;65308;50.078;14.854;2024-03-02T03:42:43;98202.84;;;10.67
76476;BMP280;65308;50.078;14.854;2024-03-02T03:45:10;98203.31;;;10.80
76476;BMP280;65308;50.078;14.854;2024-03-02T03:47:38;98205.34;;;10.70
76476;BMP280;65308;50.078;14.854;2024-03-02T03:50:05;98204.88;;;10.72
76476;BMP280;65308;50.078;14.854;2024-03-02T03:52:32;98200.16;;;10.67
76476;BMP280;65308;50.078;14.854;2024-03-02T03:54:59;98193.78;;;10.64
76476;BMP280;65308;50.078;14.854;2024-03-02T03:57:26;98199.88;;;10.65
76476;BMP280;65308;50.078;14.854;2024-03-02T03:59:52;98210.28;;;10.63
76476;BMP280;65308;50.078;14.854;2024-03-02T04:02:19;98211.50;;;10.62
76476;BMP280;65308;50.078;14.854;2024-03-02T04:04:47;98212.72;;;10.60
76476;BMP280;65308;50.078;14.854;2024-03-02T04:07:14;98214.19;;;10.62
76476;BMP280;65308;50.078;14.854;2024-03-02T04:09:40;98208.56;;;10.59
76476;BMP280;65308;50.078;14.854;2024-03-02T04:12:07;98218.78;;;10.61
76476;BMP280;65308;50.078;14.854;2024-03-02T04:14:34;98223.22;;;10.64
76476;BMP280;65308;50.078;14.854;2024-03-02T04:17:00;98219.63;;;10.67
76476;BMP280;65308;50.078;14.854;2024-03-02T04:19:27;98225.25;;;10.69
76476;BMP280;65308;50.078;14.854;2024-03-02T04:21:55;98221.41;;;10.70
76476;BMP280;65308;50.078;14.854;2024-03-02T04:24:21;98221.66;;;10.72
76476;BMP280;65308;50.078;14.854;2024-03-02T04:26:48;98234.13;;;10.75
76476;BMP280;65308;50.078;14.854;2024-03-02T04:29:15;98226.38;;;10.77
76476;BMP280;65308;50.078;14.854;2024-03-02T04:31:41;98221.75;;;10.78
76476;BMP280;65308;50.078;14.854;2024-03-02T04:34:08;98227.84;;;10.78
76476;BMP280;65308;50.078;14.854;2024-03-02T04:36:35;98237.63;;;10.81
76476;BMP280;65308;50.078;14.854;2024-03-02T04:39:03;98243.53;;;10.86
76476;BMP280;65308;50.078;14.854;2024-03-02T04:41:34;98249.47;;;10.90
76476;BMP280;65308;50.078;14.854;2024-03-02T04:44:01;98248.97;;;10.91
76476;BMP280;65308;50.078;14.854;2024-03-02T04:46:28;98238.09;;;10.95
76476;BMP280;65308;50.078;14.854;2024-03-02T04:48:55;98239.31;;;10.94
76476;BMP280;65308;50.078;14.854;2024-03-02T04:51:22;98235.59;;;10.91
76476;BMP280;65308;50.078;14.854;2024-03-02T04:53:49;98235.34;;;10.89
76476;BMP280;65308;50.078;14.854;2024-03-02T04:56:17;98231.38;;;10.84
76476;BMP280;65308;50.078;14.854;2024-03-02T04:59:05;98244.63;;;10.79
76476;BMP280;65308;50.078;14.854;2024-03-02T05:01:32;98241.16;;;10.73
76476;BMP280;65308;50.078;14.854;2024-03-02T05:03:58;98231.56;;;10.66
76476;BMP280;65308;50.078;14.854;2024-03-02T05:06:25;98233.09;;;10.58
76476;BMP280;65308;50.078;14.854;2024-03-02T05:08:52;98246.56;;;10.49
76476;BMP280;65308;50.078;14.854;2024-03-02T05:11:20;98247.38;;;10.40
76476;BMP280;65308;50.078;14.854;2024-03-02T05:14:13;98246.69;;;10.30
76476;BMP280;65308;50.078;14.854;2024-03-02T05:16:40;98257.75;;;10.23
76476;BMP280;65308;50.078;14.854;2024-03-02T05:19:07;98253.91;;;10.15
76476;BMP280;65308;50.078;14.854;2024-03-02T05:21:34;98271.81;;;10.09
76476;BMP280;65308;50.078;14.854;2024-03-02T05:24:00;98272.16;;;10.02
76476;BMP280;65308;50.078;14.854;2024-03-02T05:26:29;98270.69;;;9.92
76476;BMP280;65308;50.078;14.854;2024-03-02T05:28:55;98264.22;;;9.83
76476;BMP280;65308;50.078;14.854;2024-03-02T05:31:22;98270.84;;;9.73
76476;BMP280;65308;50.078;14.854;2024-03-02T05:33:48;98271.75;;;9.61
76476;BMP280;65308;50.078;14.854;2024-03-02T05:36:15;98268.22;;;9.55
76476;BMP280;65308;50.078;14.854;2024-03-02T05:38:42;98281.03;;;9.41
76476;BMP280;65308;50.078;14.854;2024-03-02T05:41:09;98279.16;;;9.33
76476;BMP280;65308;50.078;14.854;2024-03-02T05:43:38;98277.50;;;9.26
76476;BMP280;65308;50.078;14.854;2024-03-02T05:46:05;98276.94;;;9.22
76476;BMP280;65308;50.078;14.854;2024-03-02T05:48:32;98277.81;;;9.19
76476;BMP280;65308;50.078;14.854;2024-03-02T05:50:59;98284.06;;;9.16
76476;BMP280;65308;50.078;14.854;2024-03-02T05:53:26;98281.13;;;9.14
76476;BMP280;65308;50.078;14.854;2024-03-02T05:55:52;98279.19;;;9.14
76476;BMP280;65308;50.078;14.854;2024-03-02T05:58:21;98286.88;;;9.12
76476;BMP280;65308;50.078;14.854;2024-03-02T06:00:59;98288.25;;;9.08
76476;BMP280;65308;50.078;14.854;2024-03-02T06:03:26;98299.19;;;9.10
76476;BMP280;65308;50.078;14.854;2024-03-02T06:05:54;98303.34;;;9.11
76476;BMP280;65308;50.078;14.854;2024-03-02T06:08:20;98305.41;;;9.16
76476;BMP280;65308;50.078;14.854;2024-03-02T06:10:47;98299.63;;;9.17
76476;BMP280;65308;50.078;14.854;2024-03-02T06:13:14;98312.38;;;9.23
76476;BMP280;65308;50.078;14.854;2024-03-02T06:15:41;98306.41;;;9.28
76476;BMP280;65308;50.078;14.854;2024-03-02T06:18:12;98305.84;;;9.33
76476;BMP280;65308;50.078;14.854;2024-03-02T06:20:38;98309.94;;;9.43
76476;BMP280;65308;50.078;14.854;2024-03-02T06:23:11;98307.69;;;9.51
76476;BMP280;65308;50.078;14.854;2024-03-02T06:25:38;98315.97;;;9.62
76476;BMP280;65308;50.078;14.854;2024-03-02T06:28:05;98318.44;;;9.75
76476;BMP280;65308;50.078;14.854;2024-03-02T06:30:32;98317.81;;;9.89
76476;BMP280;65308;50.078;14.854;2024-03-02T06:32:59;98326.66;;;10.04
76476;BMP280;65308;50.078;14.854;2024-03-02T06:35:27;98322.84;;;10.20
76476;BMP280;65308;50.078;14.854;2024-03-02T06:37:53;98331.94;;;10.38
76476;BMP280;65308;50.078;14.854;2024-03-02T06:40:20;98331.13;;;10.46
76476;BMP280;65308;50.078;14.854;2024-03-02T06:42:47;98339.94;;;10.62
76476;BMP280;65308;50.078;14.854;2024-03-02T06:45:16;98331.59;;;10.83
76476;BMP280;65308;50.078;14.854;2024-03-02T06:47:43;98333.31;;;11.11
76476;BMP280;65308;50.078;14.854;2024-03-02T06:50:10;98327.44;;;11.12
76476;BMP280;65308;50.078;14.854;2024-03-02T06:52:38;98328.75;;;11.17
76476;BMP280;65308;50.078;14.854;2024-03-02T06:55:06;98334.47;;;11.24
76476;BMP280;65308;50.078;14.854;2024-03-02T06:57:32;98342.91;;;11.32
76476;BMP280;65308;50.078;14.854;2024-03-02T06:59:58;98342.69;;;11.50
76476;BMP280;65308;50.078;14.854;2024-03-02T07:02:25;98353.59;;;11.97
76476;BMP280;65308;50.078;14.854;2024-03-02T07:04:52;98367.91;;;12.70
76476;BMP280;65308;50.078;14.854;2024-03-02T07:07:19;98377.78;;;13.36
76476;BMP280;65308;50.078;14.854;2024-03-02T07:09:47;98382.09;;;13.97
76476;BMP280;65308;50.078;14.854;2024-03-02T07:12:14;98388.94;;;14.52
76476;BMP280;65308;50.078;14.854;2024-03-02T07:14:41;98388.28;;;15.02
76476;BMP280;65308;50.078;14.854;2024-03-02T07:17:24;98386.06;;;15.68
76476;BMP280;65308;50.078;14.854;2024-03-02T07:19:51;98393.38;;;16.48
76476;BMP280;65308;50.078;14.854;2024-03-02T07:22:18;98395.41;;;17.13
76476;BMP280;65308;50.078;14.854;2024-03-02T07:24:48;98381.88;;;17.62
76476;BMP280;65308;50.078;14.854;2024-03-02T07:27:16;98382.88;;;18.08
76476;BMP280;65308;50.078;14.854;2024-03-02T07:29:44;98373.38;;;18.52
76476;BMP280;65308;50.078;14.854;2024-03-02T07:32:11;98381.22;;;18.56
76476;BMP280;65308;50.078;14.854;2024-03-02T07:34:38;98378.78;;;18.52
76476;BMP280;65308;50.078;14.854;2024-03-02T07:37:05;98387.41;;;18.70
76476;BMP280;65308;50.078;14.854;2024-03-02T07:39:33;98379.44;;;18.91
76476;BMP280;65308;50.078;14.854;2024-03-02T07:42:01;98383.66;;;19.18
76476;BMP280;65308;50.078;14.854;2024-03-02T07:44:30;98389.63;;;19.56
76476;BMP280;65308;50.078;14.854;2024-03-02T07:46:57;98384.47;;;19.93
76476;BMP280;65308;50.078;14.854;2024-03-02T07:49:24;98385.97;;;20.28
76476;BMP280;65308;50.078;14.854;2024-03-02T07:51:50;98384.91;;;20.31
76476;BMP280;65308;50.078;14.854;2024-03-02T07:54:17;98386.34;;;20.32
76476;BMP280;65308;50.078;14.854;2024-03-02T07:56:45;98385.50;;;20.37
76476;BMP280;65308;50.078;14.854;2024-03-02T07:59:13;98389.97;;;20.68
76476;BMP280;65308;50.078;14.854;2024-03-02T08:01:40;98387.06;;;21.16
76476;BMP280;65308;50.078;14.854;2024-03-02T08:04:07;98392.06;;;21.40
76476;BMP280;65308;50.078;14.854;2024-03-02T08:06:34;98386.47;;;21.38
76476;BMP280;65308;50.078;14.854;2024-03-02T08:09:01;98382.75;;;21.28
76476;BMP280;65308;50.078;14.854;2024-03-02T08:11:30;98392.25;;;20.85
76476;BMP280;65308;50.078;14.854;2024-03-02T08:13:56;98392.25;;;20.44
76476;BMP280;65308;50.078;14.854;2024-03-02T08:16:30;98394.50;;;19.98
76476;BMP280;65308;50.078;14.854;2024-03-02T08:19:01;98395.38;;;19.53
76476;BMP280;65308;50.078;14.854;2024-03-02T08:21:29;98399.13;;;19.63
76476;BMP280;65308;50.078;14.854;2024-03-02T08:24:05;98404.03;;;19.65
76476;BMP280;65308;50.078;14.854;2024-03-02T08:26:31;98404.13;;;19.72
76476;BMP280;65308;50.078;14.854;2024-03-02T08:29:04;98395.63;;;20.16
76476;BMP280;65308;50.078;14.854;2024-03-02T08:31:33;98398.41;;;20.23
76476;BMP280;65308;50.078;14.854;2024-03-02T08:34:01;98404.03;;;20.80
76476;BMP280;65308;50.078;14.854;2024-03-02T08:36:28;98406.03;;;20.46
76476;BMP280;65308;50.078;14.854;2024-03-02T08:38:56;98401.22;;;20.52
76476;BMP280;65308;50.078;14.854;2024-03-02T08:41:23;98402.16;;;20.96
76476;BMP280;65308;50.078;14.854;2024-03-02T08:43:49;98400.63;;;21.44
76476;BMP280;65308;50.078;14.854;2024-03-02T08:46:16;98402.47;;;21.93
76476;BMP280;65308;50.078;14.854;2024-03-02T08:48:44;98397.47;;;22.28
76476;BMP280;65308;50.078;14.854;2024-03-02T08:51:10;98396.97;;;22.45
76476;BMP280;65308;50.078;14.854;2024-03-02T08:53:37;98395.31;;;22.49
76476;BMP280;65308;50.078;14.854;2024-03-02T08:56:04;98391.47;;;22.37
76476;BMP280;65308;50.078;14.854;2024-03-02T08:58:31;98385.13;;;22.19
76476;BMP280;65308;50.078;14.854;2024-03-02T09:00:58;98386.34;;;22.03
76476;BMP280;65308;50.078;14.854;2024-03-02T09:03:25;98384.44;;;21.75
76476;BMP280;65308;50.078;14.854;2024-03-02T09:05:54;98390.84;;;21.49
76476;BMP280;65308;50.078;14.854;2024-03-02T09:08:21;98399.06;;;21.28
76476;BMP280;65308;50.078;14.854;2024-03-02T09:10:47;98385.47;;;21.00
76476;BMP280;65308;50.078;14.854;2024-03-02T09:13:15;98395.06;;;20.51
76476;BMP280;65308;50.078;14.854;2024-03-02T09:15:41;98400.78;;;20.27
76476;BMP280;65308;50.078;14.854;2024-03-02T09:18:08;98394.72;;;19.86
76476;BMP280;65308;50.078;14.854;2024-03-02T09:20:35;98403.00;;;19.54
76476;BMP280;65308;50.078;14.854;2024-03-02T09:23:03;98412.25;;;19.32
76476;BMP280;65308;50.078;14.854;2024-03-02T09:25:30;98398.16;;;19.07
76476;BMP280;65308;50.078;14.854;2024-03-02T09:27:56;98397.59;;;18.96
76476;BMP280;65308;50.078;14.854;2024-03-02T09:30:23;98404.53;;;18.78
76476;BMP280;65308;50.078;14.854;2024-03-02T09:32:50;98400.91;;;18.56
76476;BMP280;65308;50.078;14.854;2024-03-02T09:35:16;98406.94;;;18.30
76476;BMP280;65308;50.078;14.854;2024-03-02T09:37:43;98415.56;;;18.10
76476;BMP280;65308;50.078;14.854;2024-03-02T09:40:13;98408.03;;;17.78
76476;BMP280;65308;50.078;14.854;2024-03-02T09:42:40;98407.16;;;17.70
76476;BMP280;65308;50.078;14.854;2024-03-02T09:45:09;98405.34;;;17.54
76476;BMP280;65308;50.078;14.854;2024-03-02T09:47:35;98407.25;;;17.35
76476;BMP280;65308;50.078;14.854;2024-03-02T09:50:02;98403.84;;;16.98
76476;BMP280;65308;50.078;14.854;2024-03-02T09:52:30;98403.66;;;16.55
76476;BMP280;65308;50.078;14.854;2024-03-02T09:54:57;98398.19;;;16.19
76476;BMP280;65308;50.078;14.854;2024-03-02T09:57:25;98405.13;;;15.92
76476;BMP280;65308;50.078;14.854;2024-03-02T09:59:52;98401.78;;;15.58
76476;BMP280;65308;50.078;14.854;2024-03-02T10:02:21;98408.13;;;15.61
76476;BMP280;65308;50.078;14.854;2024-03-02T10:04:49;98410.63;;;15.64
76476;BMP280;65308;50.078;14.854;2024-03-02T10:07:16;98402.72;;;15.66
76476;BMP280;65308;50.078;14.854;2024-03-02T10:09:43;98408.59;;;15.70
76476;BMP280;65308;50.078;14.854;2024-03-02T10:12:12;98406.44;;;15.63
76476;BMP280;65308;50.078;14.854;2024-03-02T10:14:40;98405.72;;;15.57
76476;BMP280;65308;50.078;14.854;2024-03-02T10:17:08;98405.69;;;15.52
76476;BMP280;65308;50.078;14.854;2024-03-02T10:19:35;98411.34;;;15.54
76476;BMP280;65308;50.078;14.854;2024-03-02T10:22:04;98412.56;;;15.47
76476;BMP280;65308;50.078;14.854;2024-03-02T10:24:41;98419.19;;;15.46
76476;BMP280;65308;50.078;14.854;2024-03-02T10:27:10;98407.19;;;15.41
76476;BMP280;65308;50.078;14.854;2024-03-02T10:29:41;98408.19;;;15.38
76476;BMP280;65308;50.078;14.854;2024-03-02T10:32:09;98407.66;;;15.29
76476;BMP280;65308;50.078;14.854;2024-03-02T10:34:36;98398.59;;;15.20
76476;BMP280;65308;50.078;14.854;2024-03-02T10:37:03;98398.13;;;15.28
76476;BMP280;65308;50.078;14.854;2024-03-02T10:39:32;98395.19;;;15.37
76476;BMP280;65308;50.078;14.854;2024-03-02T10:42:02;98393.44;;;15.39
76476;BMP280;65308;50.078;14.854;2024-03-02T10:44:30;98396.16;;;15.50
76476;BMP280;65308;50.078;14.854;2024-03-02T10:46:58;98389.78;;;15.48
76476;BMP280;65308;50.078;14.854;2024-03-02T10:49:26;98389.78;;;15.54
76476;BMP280;65308;50.078;14.854;2024-03-02T10:51:53;98386.34;;;15.64
76476;BMP280;65308;50.078;14.854;2024-03-02T10:54:20;98387.28;;;15.72
76476;BMP280;65308;50.078;14.854;2024-03-02T10:56:53;98379.63;;;15.93
76476;BMP280;65308;50.078;14.854;2024-03-02T10:59:24;98375.88;;;16.02
76476;BMP280;65308;50.078;14.854;2024-03-02T11:01:56;98379.28;;;16.14
76476;BMP280;65308;50.078;14.854;2024-03-02T11:04:26;98369.31;;;15.97
76476;BMP280;65308;50.078;14.854;2024-03-02T11:06:58;98368.53;;;16.03
76476;BMP280;65308;50.078;14.854;2024-03-02T11:09:27;98363.94;;;15.81
76476;BMP280;65308;50.078;14.854;2024-03-02T11:12:03;98362.38;;;16.02
76476;BMP280;65308;50.078;14.854;2024-03-02T11:14:34;98364.34;;;16.01
76476;BMP280;65308;50.078;14.854;2024-03-02T11:17:03;98362.16;;;16.06
76476;BMP280;65308;50.078;14.854;2024-03-02T11:19:32;98364.00;;;16.33
76476;BMP280;65308;50.078;14.854;2024-03-02T11:22:00;98363.19;;;16.44
76476;BMP280;65308;50.078;14.854;2024-03-02T11:24:29;98365.16;;;16.43
76476;BMP280;65308;50.078;14.854;2024-03-02T11:26:58;98357.78;;;16.44
76476;BMP280;65308;50.078;14.854;2024-03-02T11:29:44;98360.09;;;16.29
76476;BMP280;65308;50.078;14.854;2024-03-02T11:32:15;98352.72;;;16.29
76476;BMP280;65308;50.078;14.854;2024-03-02T11:34:45;98350.38;;;16.03
76476;BMP280;65308;50.078;14.854;2024-03-02T11:37:13;98359.38;;;15.64
76476;BMP280;65308;50.078;14.854;2024-03-02T11:39:42;98349.22;;;15.76
76476;BMP280;65308;50.078;14.854;2024-03-02T11:42:11;98351.47;;;15.83
76476;BMP280;65308;50.078;14.854;2024-03-02T11:44:42;98349.81;;;15.35
76476;BMP280;65308;50.078;14.854;2024-03-02T11:47:11;98343.47;;;15.16
76476;BMP280;65308;50.078;14.854;2024-03-02T11:49:40;98343.41;;;14.60
76476;BMP280;65308;50.078;14.854;2024-03-02T11:52:10;98341.81;;;14.14
76476;BMP280;65308;50.078;14.854;2024-03-02T11:54:39;98346.53;;;13.76
76476;BMP280;65308;50.078;14.854;2024-03-02T11:57:06;98350.91;;;14.16
76476;BMP280;65308;50.078;14.854;2024-03-02T11:59:34;98348.72;;;14.20
76476;BMP280;65308;50.078;14.854;2024-03-02T12:02:02;98352.59;;;14.14
76476;BMP280;65308;50.078;14.854;2024-03-02T12:04:29;98353.69;;;14.50
76476;BMP280;65308;50.078;14.854;2024-03-02T12:06:57;98349.34;;;14.92
76476;BMP280;65308;50.078;14.854;2024-03-02T12:09:27;98348.13;;;15.27
76476;BMP280;65308;50.078;14.854;2024-03-02T12:12:05;98344.91;;;15.39
76476;BMP280;65308;50.078;14.854;2024-03-02T12:14:32;98347.59;;;15.56
76476;BMP280;65308;50.078;14.854;2024-03-02T12:17:00;98342.34;;;15.81
76476;BMP280;65308;50.078;14.854;2024-03-02T12:19:27;98337.47;;;15.85
76476;BMP280;65308;50.078;14.854;2024-03-02T12:21:56;98335.75;;;15.82
76476;BMP280;65308;50.078;14.854;2024-03-02T12:24:23;98344.13;;;15.61
76476;BMP280;65308;50.078;14.854;2024-03-02T12:26:52;98338.22;;;15.80
76476;BMP280;65308;50.078;14.854;2024-03-02T12:29:20;98334.22;;;15.97
76476;BMP280;65308;50.078;14.854;2024-03-02T12:31:48;98331.00;;;15.99
76476;BMP280;65308;50.078;14.854;2024-03-02T12:34:15;98331.81;;;15.83
76476;BMP280;65308;50.078;14.854;2024-03-02T12:36:43;98330.91;;;15.52
76476;BMP280;65308;50.078;14.854;2024-03-02T12:39:13;98324.16;;;15.01
76476;BMP280;65308;50.078;14.854;2024-03-02T12:41:43;98317.50;;;14.68
76476;BMP280;65308;50.078;14.854;2024-03-02T12:44:11;98326.50;;;14.37
76476;BMP280;65308;50.078;14.854;2024-03-02T12:46:39;98327.19;;;14.20
76476;BMP280;65308;50.078;14.854;2024-03-02T12:49:08;98325.22;;;14.15
76476;BMP280;65308;50.078;14.854;2024-03-02T12:51:36;98323.03;;;14.31
76476;BMP280;65308;50.078;14.854;2024-03-02T12:54:05;98320.84;;;14.40
76476;BMP280;65308;50.078;14.854;2024-03-02T12:56:31;98318.72;;;14.61
76476;BMP280;65308;50.078;14.854;2024-03-02T13:02:19;98313.56;;;15.14
76476;BMP280;65308;50.078;14.854;2024-03-02T13:04:52;98304.97;;;15.38
76476;BMP280;65308;50.078;14.854;2024-03-02T13:07:24;98304.66;;;15.64
76476;BMP280;65308;50.078;14.854;2024-03-02T13:10:02;98304.09;;;15.82
76476;BMP280;65308;50.078;14.854;2024-03-02T13:12:32;98311.56;;;15.54
76476;BMP280;65308;50.078;14.854;2024-03-02T13:15:02;98299.16;;;15.92
76476;BMP280;65308;50.078;14.854;2024-03-02T13:17:34;98297.13;;;16.04
76476;BMP280;65308;50.078;14.854;2024-03-02T13:20:07;98304.03;;;16.05
76476;BMP280;65308;50.078;14.854;2024-03-02T13:22:40;98300.13;;;16.00
76476;BMP280;65308;50.078;14.854;2024-03-02T13:25:18;98298.88;;;15.32
76476;BMP280;65308;50.078;14.854;2024-03-02T13:28:13;98297.59;;;15.44
76476;BMP280;65308;50.078;14.854;2024-03-02T13:30:42;98296.88;;;15.49
76476;BMP280;65308;50.078;14.854;2024-03-02T13:33:10;98304.28;;;15.09
76476;BMP280;65308;50.078;14.854;2024-03-02T13:35:37;98309.41;;;14.85
76476;BMP280;65308;50.078;14.854;2024-03-02T13:38:07;98297.66;;;15.21
76476;BMP280;65308;50.078;14.854;2024-03-02T13:40:35;98303.50;;;15.48
76476;BMP280;65308;50.078;14.854;2024-03-02T13:43:03;98294.94;;;15.33
76476;BMP280;65308;50.078;14.854;2024-03-02T13:45:33;98295.72;;;14.94
76476;BMP280;65308;50.078;14.854;2024-03-02T13:48:00;98289.09;;;15.12
76476;BMP280;65308;50.078;14.854;2024-03-02T13:50:31;98290.53;;;14.73
76476;BMP280;65308;50.078;14.854;2024-03-02T13:53:04;98287.13;;;14.56
76476;BMP280;65308;50.078;14.854;2024-03-02T13:55:46;98279.28;;;14.47
76476;BMP280;65308;50.078;14.854;2024-03-02T13:58:16;98285.41;;;15.09
76476;BMP280;65308;50.078;14.854;2024-03-02T14:00:44;98275.53;;;15.40
76476;BMP280;65308;50.078;14.854;2024-03-02T14:03:14;98277.06;;;14.90
76476;BMP280;65308;50.078;14.854;2024-03-02T14:05:43;98273.66;;;14.56
76476;BMP280;65308;50.078;14.854;2024-03-02T14:08:14;98268.41;;;14.08